Time;durP1;ratioP1;P1;durP2;ratioP2;P2;SDS_P1;SDS_P2;PMS_P1;PMS_P2;Temp;Humidity;BMP_temperature;BMP_pressure;BME280_temperature;BME280_humidity;BME280_pressure;Samples;Min_cycle;Max_cycle;Signal;HPM_P1;HPM_P2
2023/08/02 00:00:38;;;;;;;6.90;4.80;;;;;;;22.74;65.30;99712.06;105337;1259;60454;-68
2023/08/02 00:03:06;;;;;;;7.30;4.50;;;;;;;22.68;65.42;99712.23;105515;1251;61769;-69
2023/08/02 00:05:34;;;;;;;6.50;4.60;;;;;;;22.65;65.31;99712.05;105511;1251;65318;-69
2023/08/02 00:08:01;;;;;;;6.30;4.50;;;;;;;22.63;65.26;99712.48;105532;1251;61396;-66
2023/08/02 00:10:29;;;;;;;6.40;4.60;;;;;;;22.63;65.57;99713.75;105601;1254;63716;-67
2023/08/02 00:12:56;;;;;;;7.00;4.70;;;;;;;22.63;65.68;99710.09;105613;1254;60651;-67
2023/08/02 00:15:24;;;;;;;8.70;5.00;;;;;;;22.63;65.76;99707.11;105429;1251;60618;-67
2023/08/02 00:17:51;;;;;;;6.70;4.10;;;;;;;22.62;65.91;99703.82;105377;1256;64919;-67
2023/08/02 00:20:19;;;;;;;5.50;4.00;;;;;;;22.61;66.04;99704.77;105327;1257;60370;-66
2023/08/02 00:22:47;;;;;;;7.60;4.50;;;;;;;22.59;66.15;99709.95;105362;1259;62510;-67
2023/08/02 00:25:14;;;;;;;7.30;5.20;;;;;;;22.61;66.23;99713.30;105323;1251;60511;-68
2023/08/02 00:27:42;;;;;;;7.60;5.40;;;;;;;22.62;66.54;99712.73;105403;1251;60558;-68
2023/08/02 00:30:10;;;;;;;7.80;5.50;;;;;;;22.64;66.52;99715.69;105220;1251;63644;-67
2023/08/02 00:32:47;;;;;;;7.40;4.70;;;;;;;22.63;66.53;99714.21;105608;1251;61306;-68
2023/08/02 00:35:15;;;;;;;7.30;5.40;;;;;;;22.63;66.53;99713.34;105508;1254;63939;-69
2023/08/02 00:37:44;;;;;;;9.20;5.30;;;;;;;22.60;66.35;99709.85;105454;1254;60486;-69
2023/08/02 00:40:11;;;;;;;7.50;4.90;;;;;;;22.58;66.12;99710.78;105596;1252;60617;-70
2023/08/02 00:42:39;;;;;;;7.00;4.80;;;;;;;22.55;65.89;99713.77;105394;1258;64865;-68
2023/08/02 00:45:07;;;;;;;6.90;5.20;;;;;;;22.53;65.85;99717.51;105531;1251;61890;-67
2023/08/02 00:47:35;;;;;;;7.10;5.70;;;;;;;22.52;66.11;99717.84;105522;1256;63679;-67
2023/08/02 00:50:02;;;;;;;7.10;5.30;;;;;;;22.51;66.21;99715.70;105437;1254;60475;-69
2023/08/02 00:52:30;;;;;;;8.60;6.00;;;;;;;22.48;66.10;99716.14;106130;1251;60545;-70
2023/08/02 00:54:58;;;;;;;6.80;5.80;;;;;;;22.46;66.04;99720.60;105381;1251;64926;-67
2023/08/02 00:57:26;;;;;;;7.70;5.70;;;;;;;22.46;65.99;99720.27;105454;1259;61853;-69
2023/08/02 00:59:53;;;;;;;7.60;5.80;;;;;;;22.45;66.01;99719.29;105593;1254;63818;-64
2023/08/02 01:02:21;;;;;;;7.10;5.90;;;;;;;22.43;66.11;99713.12;105407;1251;60618;-65
2023/08/02 01:04:48;;;;;;;6.30;5.40;;;;;;;22.41;66.01;99708.14;105572;1257;60552;-64
2023/08/02 01:07:28;;;;;;;7.00;5.50;;;;;;;22.37;66.04;99706.18;105539;1252;63780;-64
2023/08/02 01:10:11;;;;;;;8.70;6.50;;;;;;;22.30;66.03;99704.41;105427;1259;61853;-64
2023/08/02 01:12:44;;;;;;;8.40;6.50;;;;;;;22.26;66.08;99704.30;105835;1258;63880;-64
2023/08/02 01:15:13;;;;;;;7.10;5.40;;;;;;;22.23;66.08;99700.92;105726;1251;60476;-64
2023/08/02 01:17:41;;;;;;;8.40;5.40;;;;;;;22.22;66.24;99706.79;105542;1258;60321;-64
2023/08/02 01:20:09;;;;;;;8.80;6.10;;;;;;;22.21;66.32;99715.01;105494;1251;65866;-63
2023/08/02 01:22:37;;;;;;;7.30;5.40;;;;;;;22.20;66.30;99713.11;105514;1254;61308;-64
2023/08/02 01:25:05;;;;;;;9.20;6.60;;;;;;;22.19;66.36;99711.88;105377;1257;62480;-64
2023/08/02 01:27:45;;;;;;;7.90;6.50;;;;;;;22.15;66.42;99709.88;105494;1254;60559;-69
2023/08/02 01:30:14;;;;;;;8.30;5.30;;;;;;;22.14;66.44;99709.77;105629;1251;60552;-68
2023/08/02 01:32:42;;;;;;;7.90;6.00;;;;;;;22.15;66.23;99706.71;105440;1257;63801;-69
2023/08/02 01:35:10;;;;;;;8.60;6.20;;;;;;;22.17;66.17;99708.64;105576;1254;61853;-69
2023/08/02 01:37:38;;;;;;;8.40;6.50;;;;;;;22.18;66.30;99710.02;105605;1257;62516;-68
2023/08/02 01:40:06;;;;;;;8.60;6.60;;;;;;;22.19;66.38;99709.15;105412;1251;60473;-69
2023/08/02 01:42:34;;;;;;;8.20;6.70;;;;;;;22.18;66.47;99711.98;105579;1252;60490;-69
2023/08/02 01:45:01;;;;;;;8.40;6.50;;;;;;;22.17;66.66;99708.64;105570;1257;63637;-70
2023/08/02 01:47:29;;;;;;;9.10;6.00;;;;;;;22.14;66.70;99705.65;105444;1254;62414;-69
2023/08/02 01:49:56;;;;;;;9.40;6.30;;;;;;;22.13;66.64;99708.98;105397;1251;62454;-71
2023/08/02 01:52:24;;;;;;;7.60;5.80;;;;;;;22.11;66.74;99706.77;105508;1251;60435;-69
2023/08/02 01:54:51;;;;;;;7.50;5.90;;;;;;;22.12;66.58;99708.25;105613;1258;60503;-69
2023/08/02 01:57:20;;;;;;;7.80;5.90;;;;;;;22.13;66.65;99706.69;105381;1254;64942;-68
2023/08/02 01:59:48;;;;;;;9.00;6.20;;;;;;;22.11;66.64;99709.11;105452;1251;61382;-68
2023/08/02 02:02:16;;;;;;;8.00;6.40;;;;;;;22.08;66.72;99707.38;105428;1257;63677;-69
2023/08/02 02:04:44;;;;;;;7.50;5.50;;;;;;;22.04;66.73;99705.04;105429;1257;60537;-68
2023/08/02 02:07:11;;;;;;;7.50;5.30;;;;;;;22.03;66.76;99708.77;105438;1254;60550;-68
2023/08/02 02:09:39;;;;;;;6.70;5.40;;;;;;;22.02;66.55;99708.28;105441;1254;65013;-69
2023/08/02 02:12:07;;;;;;;6.80;5.60;;;;;;;22.03;66.52;99710.85;105556;1251;61409;-67
2023/08/02 02:14:34;;;;;;;7.20;5.10;;;;;;;22.02;66.42;99711.65;105619;1254;62516;-69
2023/08/02 02:17:02;;;;;;;8.70;5.80;;;;;;;21.99;66.55;99709.15;105543;1257;62076;-68
2023/08/02 02:19:29;;;;;;;11.10;6.60;;;;;;;21.94;66.54;99705.70;105575;1251;60565;-68
2023/08/02 02:21:57;;;;;;;11.00;6.80;;;;;;;21.89;66.57;99701.41;105453;1258;64936;-66
2023/08/02 02:24:24;;;;;;;7.60;5.80;;;;;;;21.86;66.55;99700.31;105413;1254;61444;-67
2023/08/02 02:26:52;;;;;;;7.50;5.30;;;;;;;21.87;66.60;99697.09;105596;1253;63752;-66
2023/08/02 02:29:19;;;;;;;7.10;5.60;;;;;;;21.87;66.55;99700.38;105406;1254;60525;-70
2023/08/02 02:31:47;;;;;;;8.00;5.50;;;;;;;21.90;66.53;99703.42;105241;1258;60539;-69
2023/08/02 02:34:15;;;;;;;6.90;5.00;;;;;;;21.90;66.64;99706.27;105454;1251;64928;-70
2023/08/02 02:36:44;;;;;;;6.10;4.60;;;;;;;21.86;66.52;99707.80;105551;1251;61279;-69
2023/08/02 02:39:12;;;;;;;6.00;4.30;;;;;;;21.82;66.79;99712.52;105437;1254;63700;-69
2023/08/02 02:41:39;;;;;;;9.00;5.60;;;;;;;21.81;66.85;99709.27;105482;1254;60521;-70
2023/08/02 02:44:07;;;;;;;7.50;5.20;;;;;;;21.81;66.80;99711.95;105473;1254;60425;-70
2023/08/02 02:46:34;;;;;;;7.00;5.00;;;;;;;21.82;66.87;99709.34;105474;1251;64941;-71
2023/08/02 02:49:02;;;;;;;7.10;6.00;;;;;;;21.84;66.80;99708.89;105513;1252;61339;-68
2023/08/02 02:51:29;;;;;;;8.30;6.10;;;;;;;21.83;66.85;99709.14;105388;1254;63834;-70
2023/08/02 02:53:57;;;;;;;7.60;6.00;;;;;;;21.81;66.74;99705.52;105284;1251;60554;-70
2023/08/02 02:56:25;;;;;;;8.50;5.40;;;;;;;21.79;66.73;99707.06;105370;1256;60456;-65
2023/08/02 02:58:53;;;;;;;7.90;5.80;;;;;;;21.79;66.68;99715.27;105538;1257;63857;-68
2023/08/02 03:01:21;;;;;;;6.80;5.10;;;;;;;21.80;66.73;99716.73;105667;1254;62031;-67
2023/08/02 03:03:48;;;;;;;7.60;5.10;;;;;;;21.82;66.93;99716.65;105453;1260;63745;-67
2023/08/02 03:06:16;;;;;;;7.80;5.20;;;;;;;21.84;66.83;99713.83;105593;1256;60559;-70
2023/08/02 03:08:44;;;;;;;7.10;5.20;;;;;;;21.83;66.84;99720.96;105506;1259;60361;-70
2023/08/02 03:11:11;;;;;;;6.60;5.40;;;;;;;21.82;66.95;99719.20;105371;1259;64829;-66
2023/08/02 03:13:39;;;;;;;8.20;5.70;;;;;;;21.82;66.99;99716.85;105539;1251;61370;-67
2023/08/02 03:16:07;;;;;;;7.00;4.70;;;;;;;21.84;66.90;99709.23;105531;1254;63782;-64
2023/08/02 03:18:34;;;;;;;8.50;6.00;;;;;;;21.86;66.83;99709.63;105674;1259;60462;-66
2023/08/02 03:21:02;;;;;;;9.60;6.50;;;;;;;21.88;66.89;99709.58;105482;1254;60685;-65
2023/08/02 03:23:29;;;;;;;7.60;5.90;;;;;;;21.91;67.18;99709.02;105490;1251;63627;-67
2023/08/02 03:25:57;;;;;;;9.30;6.60;;;;;;;21.94;67.23;99709.04;105468;1251;61872;-68
2023/08/02 03:28:24;;;;;;;8.20;6.00;;;;;;;21.97;67.37;99707.23;105487;1254;62514;-68
2023/08/02 03:30:55;;;;;;;7.70;6.00;;;;;;;21.99;67.43;99703.42;105505;1255;60626;-66
2023/08/02 03:33:23;;;;;;;9.90;6.90;;;;;;;22.01;67.58;99701.72;105525;1259;60368;-67
2023/08/02 03:35:50;;;;;;;9.00;6.10;;;;;;;22.05;67.56;99706.69;105279;1251;64976;-67
2023/08/02 03:38:18;;;;;;;8.90;6.80;;;;;;;22.08;67.68;99709.38;105497;1259;61195;-63
2023/08/02 03:40:45;;;;;;;8.50;6.50;;;;;;;22.12;67.73;99711.75;105563;1259;63682;-68
2023/08/02 03:43:13;;;;;;;8.00;6.40;;;;;;;22.15;67.81;99714.75;105478;1258;60560;-65
2023/08/02 03:45:40;;;;;;;14.00;7.00;;;;;;;22.19;67.90;99712.58;105466;1259;59566;-64
2023/08/02 03:48:08;;;;;;;11.70;6.80;;;;;;;22.23;67.95;99711.40;105450;1258;64924;-68
2023/08/02 03:50:35;;;;;;;8.80;7.50;;;;;;;22.28;67.98;99705.29;105536;1257;61343;-68
2023/08/02 03:53:03;;;;;;;8.50;7.30;;;;;;;22.34;68.06;99704.06;105566;1257;63653;-69
2023/08/02 03:55:30;;;;;;;8.10;6.50;;;;;;;22.39;67.98;99702.19;105396;1254;60736;-70
2023/08/02 03:57:58;;;;;;;7.80;6.20;;;;;;;22.42;67.89;99698.98;105508;1254;60508;-72
2023/08/02 04:00:25;;;;;;;10.50;6.40;;;;;;;22.49;68.01;99700.00;105407;1254;64836;-69
2023/08/02 04:02:54;;;;;;;7.20;5.80;;;;;;;22.56;67.95;99699.74;105454;1251;61300;-67
2023/08/02 04:05:22;;;;;;;8.90;6.80;;;;;;;22.65;67.94;99701.91;105504;1255;63632;-65
2023/08/02 04:07:49;;;;;;;10.00;7.00;;;;;;;22.72;67.88;99707.94;105593;1260;60714;-68
2023/08/02 04:10:16;;;;;;;8.30;6.50;;;;;;;22.79;67.99;99707.92;105665;1260;60723;-68
2023/08/02 04:12:44;;;;;;;9.00;6.90;;;;;;;22.85;67.99;99709.36;105372;1259;64884;-67
2023/08/02 04:15:12;;;;;;;8.90;6.80;;;;;;;22.91;67.95;99703.20;105433;1257;61894;-69
2023/08/02 04:17:39;;;;;;;8.70;7.00;;;;;;;22.95;67.97;99702.38;105382;1251;62448;-64
2023/08/02 04:20:07;;;;;;;7.60;6.30;;;;;;;23.03;67.85;99698.46;105440;1259;60597;-66
2023/08/02 04:22:35;;;;;;;8.60;6.90;;;;;;;23.08;67.76;99695.13;105651;1257;60666;-66
2023/08/02 04:25:03;;;;;;;10.40;6.50;;;;;;;23.16;67.65;99692.09;105394;1259;63685;-62
2023/08/02 04:27:31;;;;;;;8.50;6.80;;;;;;;23.24;67.51;99691.52;105565;1251;60600;-61
2023/08/02 04:29:58;;;;;;;10.70;8.20;;;;;;;23.28;67.35;99688.58;105366;1253;63792;-67
2023/08/02 04:32:26;;;;;;;15.90;7.90;;;;;;;23.28;67.30;99687.98;105648;1260;60541;-61
2023/08/02 04:34:54;;;;;;;11.40;7.80;;;;;;;23.27;67.22;99686.57;105510;1259;60528;-69
2023/08/02 04:37:21;;;;;;;8.30;7.40;;;;;;;23.29;67.37;99683.04;105261;1254;65141;-68
2023/08/02 04:39:49;;;;;;;8.60;7.10;;;;;;;23.37;67.44;99682.78;105458;1258;70235;-69
2023/08/02 04:42:17;;;;;;;9.40;7.70;;;;;;;23.44;67.24;99676.55;105610;1255;63737;-67
2023/08/02 04:44:44;;;;;;;9.70;6.80;;;;;;;23.51;67.23;99680.17;105523;1257;60549;-70
2023/08/02 04:47:12;;;;;;;12.50;8.20;;;;;;;23.58;67.02;99678.93;105451;1257;60458;-69
2023/08/02 04:49:39;;;;;;;8.40;6.30;;;;;;;23.67;66.83;99675.08;105530;1256;63680;-70
2023/08/02 04:52:07;;;;;;;10.10;8.10;;;;;;;23.75;66.49;99672.94;106066;1257;60484;-70
2023/08/02 04:54:34;;;;;;;9.20;8.10;;;;;;;23.79;65.96;99672.47;105585;1253;63839;-70
2023/08/02 04:57:02;;;;;;;9.60;7.90;;;;;;;23.82;65.98;99668.98;105625;1254;60515;-70
2023/08/02 04:59:30;;;;;;;9.50;8.20;;;;;;;23.87;65.96;99667.59;105947;1251;60525;-70
2023/08/02 05:01:57;;;;;;;9.10;7.40;;;;;;;23.91;65.60;99666.96;105469;1253;63703;-66
2023/08/02 05:04:25;;;;;;;9.60;7.30;;;;;;;23.95;65.49;99664.70;105492;1258;61275;-63
2023/08/02 05:06:54;;;;;;;9.70;7.40;;;;;;;24.01;65.48;99665.34;105466;1257;63804;-65
2023/08/02 05:09:22;;;;;;;8.00;6.70;;;;;;;24.07;65.27;99666.74;105663;1255;60478;-71
2023/08/02 05:11:50;;;;;;;8.80;7.20;;;;;;;24.13;65.19;99663.73;105698;1252;61028;-67
2023/08/02 05:14:18;;;;;;;10.00;8.30;;;;;;;24.20;65.11;99664.36;105591;1254;63610;-63
2023/08/02 05:16:46;;;;;;;10.10;7.10;;;;;;;24.28;64.89;99664.41;109295;1257;61372;-63
2023/08/02 05:19:14;;;;;;;9.40;8.00;;;;;;;24.36;64.50;99667.30;109328;1251;63703;-72
2023/08/02 05:21:41;;;;;;;10.40;7.10;;;;;;;24.43;64.02;99665.48;108010;1257;59240;-67
2023/08/02 05:24:09;;;;;;;8.60;7.00;;;;;;;24.52;63.80;99663.23;106321;1251;60538;-69
2023/08/02 05:26:37;;;;;;;9.20;7.50;;;;;;;24.61;63.77;99658.15;105403;1252;64926;-66
2023/08/02 05:29:05;;;;;;;10.60;8.50;;;;;;;24.71;63.56;99657.20;106075;1258;60445;-68
2023/08/02 05:31:33;;;;;;;10.50;8.20;;;;;;;24.79;63.40;99658.84;105417;1256;64367;-69
2023/08/02 05:34:01;;;;;;;8.50;7.20;;;;;;;24.88;63.23;99657.19;105596;1259;60354;-69
2023/08/02 05:36:28;;;;;;;9.60;7.70;;;;;;;24.98;63.08;99659.03;105932;1257;60556;-64
2023/08/02 05:38:56;;;;;;;9.50;7.50;;;;;;;25.08;62.98;99659.14;105601;1257;63799;-66
2023/08/02 05:41:24;;;;;;;9.50;7.10;;;;;;;25.17;62.65;99660.95;105391;1254;61434;-70
2023/08/02 05:43:51;;;;;;;10.20;7.70;;;;;;;25.22;62.34;99660.73;105438;1254;63725;-67
2023/08/02 05:46:18;;;;;;;8.40;7.40;;;;;;;25.23;62.52;99660.02;105528;1253;60555;-62
2023/08/02 05:48:46;;;;;;;11.50;8.70;;;;;;;25.25;62.99;99660.31;105371;1257;341290;-62
2023/08/02 05:53:42;;;;;;;9.10;7.80;;;;;;;25.07;63.65;99655.51;102484;1295;601400;-70
2023/08/02 05:56:10;;;;;;;12.70;9.00;;;;;;;25.32;62.81;99652.29;104414;1273;59394;-66
2023/08/02 05:58:37;;;;;;;10.30;7.90;;;;;;;25.41;62.71;99646.44;104489;1272;60063;-67
2023/08/02 06:01:05;;;;;;;9.70;8.60;;;;;;;25.50;62.45;99647.49;104333;1267;62113;-65
2023/08/02 06:03:34;;;;;;;9.70;8.60;;;;;;;25.57;62.10;99648.87;104796;1267;61479;-64
2023/08/02 06:06:02;;;;;;;9.80;8.60;;;;;;;25.63;61.96;99646.55;105244;1267;63819;-66
2023/08/02 06:08:29;;;;;;;10.30;8.00;;;;;;;25.66;62.02;99651.63;104544;1269;247856;-66
2023/08/02 06:10:57;;;;;;;10.20;8.10;;;;;;;25.72;61.82;99650.34;104896;1271;59512;-58
2023/08/02 06:13:25;;;;;;;11.10;7.60;;;;;;;25.78;61.55;99646.52;104799;1265;61991;-66
2023/08/02 06:15:52;;;;;;;8.90;8.00;;;;;;;25.84;61.31;99644.85;104870;1266;61307;-60
2023/08/02 06:18:20;;;;;;;9.70;8.30;;;;;;;25.90;61.30;99647.00;105239;1264;63949;-59
2023/08/02 06:20:47;;;;;;;10.10;9.10;;;;;;;25.95;61.16;99650.48;105182;1261;59708;-59
2023/08/02 06:23:15;;;;;;;11.30;9.20;;;;;;;25.97;61.07;99648.19;105229;1256;59769;-68
2023/08/02 06:25:42;;;;;;;11.80;8.30;;;;;;;26.01;60.91;99651.64;105253;1254;64766;-61
2023/08/02 06:28:10;;;;;;;11.80;8.20;;;;;;;26.04;60.65;99648.95;105293;1254;60238;-59
2023/08/02 06:30:37;;;;;;;10.40;8.70;;;;;;;26.08;60.42;99647.62;105345;1258;63712;-60
2023/08/02 06:33:05;;;;;;;12.90;8.70;;;;;;;26.13;60.56;99647.55;105341;1257;59773;-61
2023/08/02 06:35:33;;;;;;;12.70;9.50;;;;;;;26.16;60.49;99646.30;105306;1260;59593;-61
2023/08/02 06:38:01;;;;;;;9.80;8.70;;;;;;;26.19;60.50;99647.66;105431;1254;63101;-59
2023/08/02 06:40:28;;;;;;;9.60;7.50;;;;;;;26.25;60.58;99647.05;105075;1260;61612;-60
2023/08/02 06:42:56;;;;;;;9.10;7.90;;;;;;;26.35;60.42;99651.09;105386;1256;63889;-60
2023/08/02 06:45:23;;;;;;;11.20;8.20;;;;;;;26.44;60.23;99648.75;105149;1254;59725;-59
2023/08/02 06:47:51;;;;;;;9.80;8.80;;;;;;;26.54;60.04;99649.01;105172;1260;59719;-59
2023/08/02 06:50:18;;;;;;;10.40;8.30;;;;;;;26.61;59.25;99647.04;105249;1260;73148;-61
2023/08/02 06:52:46;;;;;;;9.90;8.90;;;;;;;26.66;58.77;99647.94;105366;1258;62559;-60
2023/08/02 06:55:13;;;;;;;9.90;8.30;;;;;;;26.69;58.44;99645.45;105263;1257;63802;-60
2023/08/02 06:57:41;;;;;;;12.30;8.00;;;;;;;26.75;58.28;99642.84;105231;1260;59768;-59
2023/08/02 07:00:09;;;;;;;10.60;8.10;;;;;;;26.82;57.98;99639.64;105213;1255;59706;-59
2023/08/02 07:02:37;;;;;;;17.80;9.20;;;;;;;26.89;57.86;99637.46;105538;1254;62856;-58
2023/08/02 07:05:04;;;;;;;12.20;8.60;;;;;;;26.97;57.76;99638.61;105500;1257;60285;-60
2023/08/02 07:07:35;;;;;;;14.80;8.90;;;;;;;27.05;57.52;99634.44;105190;1254;63703;-60
2023/08/02 07:10:04;;;;;;;11.60;9.70;;;;;;;27.12;57.37;99631.67;105204;1260;59695;-59
2023/08/02 07:12:31;;;;;;;14.80;9.50;;;;;;;27.19;57.25;99631.39;105272;1257;59635;-59
2023/08/02 07:14:59;;;;;;;13.10;9.00;;;;;;;27.27;56.85;99634.89;105265;1257;64145;-60
2023/08/02 07:17:26;;;;;;;11.40;7.80;;;;;;;27.35;56.19;99638.09;105274;1254;61497;-59
2023/08/02 07:19:54;;;;;;;10.50;9.10;;;;;;;27.42;55.85;99634.01;105389;1257;63731;-60
2023/08/02 07:22:22;;;;;;;10.60;8.80;;;;;;;27.47;55.96;99632.23;105281;1258;59733;-59
2023/08/02 07:24:49;;;;;;;10.50;8.90;;;;;;;27.54;55.81;99631.39;105324;1254;59846;-59
2023/08/02 07:27:17;;;;;;;9.90;8.60;;;;;;;27.61;55.40;99631.20;105531;1256;64545;-59
2023/08/02 07:29:49;;;;;;;9.80;8.80;;;;;;;27.69;55.17;99630.48;105288;1255;61412;-60
2023/08/02 07:32:17;;;;;;;14.90;9.00;;;;;;;27.76;55.27;99631.57;105678;1258;63674;-59
2023/08/02 07:34:44;;;;;;;14.70;8.20;;;;;;;27.81;55.10;99630.91;105139;1254;59690;-58
2023/08/02 07:37:12;;;;;;;9.40;8.50;;;;;;;27.89;54.99;99629.77;105303;1260;59668;-58
2023/08/02 07:39:40;;;;;;;10.40;7.50;;;;;;;27.97;54.39;99632.95;105314;1261;64149;-58
2023/08/02 07:42:08;;;;;;;21.00;8.50;;;;;;;27.99;54.19;99630.41;105228;1260;61539;-59
2023/08/02 07:44:36;;;;;;;13.00;7.90;;;;;;;27.99;54.31;99634.36;105261;1257;63694;-59
2023/08/02 07:47:04;;;;;;;9.70;7.80;;;;;;;28.02;53.84;99633.30;105318;1261;59739;-55
2023/08/02 07:49:32;;;;;;;9.70;8.50;;;;;;;28.04;53.72;99628.67;105504;1258;59625;-56
2023/08/02 07:51:59;;;;;;;11.60;8.50;;;;;;;28.06;54.12;99631.38;105327;1258;62904;-58
2023/08/02 07:54:27;;;;;;;8.70;7.80;;;;;;;28.05;54.09;99630.09;105334;1259;60326;-59
2023/08/02 07:56:58;;;;;;;11.20;8.10;;;;;;;28.06;54.07;99630.58;105292;1258;63938;-60
2023/08/02 07:59:26;;;;;;;14.80;9.30;;;;;;;28.10;54.43;99635.22;105453;1258;59900;-59
2023/08/02 08:01:53;;;;;;;14.60;10.90;;;;;;;28.17;54.51;99636.63;105176;1254;59733;-59
2023/08/02 08:04:21;;;;;;;12.30;9.20;;;;;;;28.24;54.26;99631.44;105350;1258;64048;-58
2023/08/02 08:06:48;;;;;;;9.50;8.50;;;;;;;28.32;53.93;99628.32;105195;1254;61395;-59
2023/08/02 08:09:20;;;;;;;10.90;9.60;;;;;;;28.42;53.45;99625.03;105312;1256;63909;-58
2023/08/02 08:11:48;;;;;;;10.20;9.10;;;;;;;28.52;53.11;99618.67;105325;1254;59813;-59
2023/08/02 08:14:15;;;;;;;13.90;9.90;;;;;;;28.62;52.88;99612.20;105180;1254;60012;-57
2023/08/02 08:16:43;;;;;;;14.90;10.20;;;;;;;28.70;52.36;99610.05;105309;1260;64109;-57
2023/08/02 08:19:10;;;;;;;12.70;9.70;;;;;;;28.78;51.92;99611.05;105372;1255;61582;-59
2023/08/02 08:21:37;;;;;;;18.60;12.30;;;;;;;28.80;51.59;99604.20;105252;1256;63726;-61
2023/08/02 08:24:06;;;;;;;11.50;9.10;;;;;;;28.79;51.88;99608.19;105253;1257;60944;-60
2023/08/02 08:26:34;;;;;;;14.10;10.60;;;;;;;28.81;51.81;99608.54;105399;1257;59710;-60
2023/08/02 08:29:01;;;;;;;12.40;8.40;;;;;;;28.85;51.72;99605.03;105197;1255;64201;-62
2023/08/02 08:31:29;;;;;;;9.10;7.90;;;;;;;28.91;51.60;99607.94;105189;1254;61322;-61
2023/08/02 08:33:57;;;;;;;11.40;8.10;;;;;;;28.98;51.51;99612.14;105143;1260;62510;-59
2023/08/02 08:36:26;;;;;;;13.20;9.90;;;;;;;29.04;51.07;99608.14;105136;1259;59579;-60
2023/08/02 08:38:53;;;;;;;9.80;8.40;;;;;;;29.10;51.09;99603.96;106818;1254;60246;-58
2023/08/02 08:41:21;;;;;;;12.80;9.10;;;;;;;29.17;51.04;99602.11;104965;1260;64142;-60
2023/08/02 08:43:49;;;;;;;8.90;7.60;;;;;;;29.25;50.81;99603.45;109007;1256;61342;-60
2023/08/02 08:46:16;;;;;;;7.80;6.60;;;;;;;29.31;50.24;99600.80;107015;1257;62448;-62
2023/08/02 08:48:44;;;;;;;8.80;7.20;;;;;;;29.35;49.82;99597.90;105096;1260;59746;-60
2023/08/02 08:51:13;;;;;;;10.50;7.60;;;;;;;29.38;50.38;99595.04;105101;1254;59954;-60
2023/08/02 08:53:42;;;;;;;8.80;7.50;;;;;;;29.40;49.86;99595.16;106106;1254;62906;-69
2023/08/02 08:56:10;;;;;;;7.70;6.20;;;;;;;29.38;49.30;99597.04;106553;1256;61586;-68
2023/08/02 08:58:37;;;;;;;7.80;6.00;;;;;;;29.36;49.19;99593.79;105367;1261;62664;-62
2023/08/02 09:01:06;;;;;;;7.50;6.40;;;;;;;29.36;49.32;99593.35;105425;1254;59734;-63
2023/08/02 09:03:34;;;;;;;8.00;6.10;;;;;;;29.38;49.52;99591.68;105377;1261;60034;-61
2023/08/02 09:06:02;;;;;;;8.30;6.00;;;;;;;29.37;49.49;99589.30;105234;1254;64064;-61
2023/08/02 09:08:42;;;;;;;7.10;5.90;;;;;;;29.37;48.97;99589.07;105360;1260;60216;-61
2023/08/02 09:11:11;;;;;;;6.80;5.80;;;;;;;29.35;48.13;99584.52;105143;1261;63696;-61
2023/08/02 09:13:39;;;;;;;6.40;4.50;;;;;;;29.35;48.40;99581.42;105369;1260;59663;-60
2023/08/02 09:16:16;;;;;;;6.50;5.00;;;;;;;29.37;48.18;99580.67;105179;1257;59569;-62
2023/08/02 09:18:48;;;;;;;6.60;4.80;;;;;;;29.41;47.36;99581.50;105335;1254;64117;-59
2023/08/02 09:21:20;;;;;;;6.70;4.60;;;;;;;29.46;46.79;99582.70;105353;1254;61447;-63
2023/08/02 09:23:48;;;;;;;7.10;5.50;;;;;;;29.49;46.59;99580.43;105415;1258;63776;-60
2023/08/02 09:26:18;;;;;;;7.10;4.70;;;;;;;29.55;46.46;99578.16;105276;1256;59637;-61
2023/08/02 09:29:06;;;;;;;6.00;4.80;;;;;;;29.61;46.12;99574.60;105450;1254;59705;-60
2023/08/02 09:31:34;;;;;;;5.80;4.70;;;;;;;29.66;45.62;99573.84;105554;1254;73054;-66
2023/08/02 09:34:02;;;;;;;6.40;5.00;;;;;;;29.70;46.51;99566.70;105389;1254;61520;-60
2023/08/02 09:36:34;;;;;;;7.10;5.00;;;;;;;29.73;46.53;99565.77;105545;1260;63758;-60
2023/08/02 09:39:14;;;;;;;7.00;5.00;;;;;;;29.75;47.37;99561.82;105427;1254;59698;-61
2023/08/02 09:41:42;;;;;;;6.80;4.30;;;;;;;29.75;46.88;99563.77;105524;1257;59657;-62
2023/08/02 09:44:26;;;;;;;6.30;3.70;;;;;;;29.73;45.53;99564.90;105318;1254;64275;-63
2023/08/02 09:46:54;;;;;;;6.80;4.10;;;;;;;29.68;45.05;99561.10;105697;1259;60114;-61
2023/08/02 09:49:21;;;;;;;6.40;3.80;;;;;;;29.64;44.49;99562.23;105463;1254;63769;-63
2023/08/02 09:51:49;;;;;;;6.50;3.50;;;;;;;29.62;44.17;99560.17;105219;1254;60802;-60
2023/08/02 09:54:17;;;;;;;7.70;4.30;;;;;;;29.63;44.37;99557.69;105292;1259;59730;-63
2023/08/02 09:56:45;;;;;;;5.10;3.50;;;;;;;29.69;44.76;99550.31;105352;1255;64276;-64
2023/08/02 09:59:13;;;;;;;6.10;3.90;;;;;;;29.75;45.41;99548.98;105263;1254;62961;-60
2023/08/02 10:01:41;;;;;;;7.40;4.00;;;;;;;29.81;45.45;99544.28;105116;1259;62463;-60
2023/08/02 10:04:10;;;;;;;5.80;3.70;;;;;;;29.86;45.00;99543.63;105454;1254;60472;-62
2023/08/02 10:06:39;;;;;;;6.70;4.10;;;;;;;29.89;44.97;99543.47;105575;1254;61219;-63
2023/08/02 10:09:08;;;;;;;6.20;4.00;;;;;;;29.94;45.37;99540.05;105609;1259;64924;-62
2023/08/02 10:11:45;;;;;;;5.70;3.70;;;;;;;29.99;44.72;99538.64;105145;1261;61309;-66
2023/08/02 10:14:13;;;;;;;5.80;4.20;;;;;;;30.03;44.29;99537.00;105394;1260;63795;-60
2023/08/02 10:16:41;;;;;;;6.00;4.50;;;;;;;30.02;44.49;99534.66;105587;1254;60556;-59
2023/08/02 10:19:08;;;;;;;6.00;4.50;;;;;;;30.03;44.85;99532.13;105466;1257;60464;-67
2023/08/02 10:21:36;;;;;;;6.80;4.90;;;;;;;30.07;45.29;99529.19;105388;1259;64975;-61
2023/08/02 10:24:04;;;;;;;5.70;4.10;;;;;;;30.10;45.39;99526.98;105755;1259;60430;-62
2023/08/02 10:26:31;;;;;;;6.80;4.20;;;;;;;30.13;44.48;99522.03;107998;1254;63797;-61
2023/08/02 10:28:59;;;;;;;6.40;4.40;;;;;;;30.17;44.82;99521.03;105225;1253;60538;-60
2023/08/02 10:31:27;;;;;;;7.40;4.50;;;;;;;30.22;44.57;99518.38;105523;1259;60526;-60
2023/08/02 10:33:55;;;;;;;6.20;4.90;;;;;;;30.23;44.13;99517.34;105359;1259;64948;-64
2023/08/02 10:36:23;;;;;;;6.40;4.70;;;;;;;30.22;44.49;99515.98;105494;1254;61365;-60
2023/08/02 10:38:54;;;;;;;6.10;4.80;;;;;;;30.26;45.09;99517.06;105361;1256;64246;-62
2023/08/02 10:41:26;;;;;;;6.40;4.40;;;;;;;30.32;45.39;99511.57;105456;1254;60910;-60
2023/08/02 10:43:53;;;;;;;7.90;4.50;;;;;;;30.35;44.62;99511.19;105953;1254;60469;-63
2023/08/02 10:46:26;;;;;;;5.90;4.30;;;;;;;30.36;44.26;99507.02;105436;1254;65158;-64
2023/08/02 10:49:09;;;;;;;6.80;4.50;;;;;;;30.34;43.78;99504.45;105338;1254;61292;-62
2023/08/02 10:51:37;;;;;;;5.70;4.10;;;;;;;30.28;44.08;99502.30;105368;1254;63675;-67
2023/08/02 10:54:25;;;;;;;6.00;4.50;;;;;;;30.23;43.94;99496.98;105296;1257;60921;-63
2023/08/02 10:56:53;;;;;;;7.20;5.00;;;;;;;30.18;44.28;99489.73;105513;1259;60716;-69
2023/08/02 10:59:24;;;;;;;6.60;4.10;;;;;;;30.16;44.34;99487.52;105424;1259;63626;-65
2023/08/02 11:01:58;;;;;;;6.40;5.20;;;;;;;30.17;45.29;99482.78;105382;1260;60551;-63
2023/08/02 11:04:26;;;;;;;5.50;4.00;;;;;;;30.23;45.99;99473.44;105270;1254;63752;-60
2023/08/02 11:06:53;;;;;;;7.20;4.70;;;;;;;30.33;45.82;99470.23;105195;1254;60514;-57
2023/08/02 11:09:31;;;;;;;8.60;4.70;;;;;;;30.45;46.11;99468.03;105154;1259;60351;-60
2023/08/02 11:12:15;;;;;;;5.40;3.80;;;;;;;30.61;45.43;99465.52;109155;1253;64862;-63
2023/08/02 11:14:48;;;;;;;5.70;4.20;;;;;;;30.77;43.47;99460.19;109039;1254;61482;-63
2023/08/02 11:17:20;;;;;;;8.50;4.30;;;;;;;30.87;42.70;99458.81;109179;1254;64364;-60
2023/08/02 11:19:51;;;;;;;5.80;4.40;;;;;;;30.92;43.09;99459.40;107556;1255;60511;-61
2023/08/02 11:22:22;;;;;;;5.50;4.00;;;;;;;30.98;42.79;99460.96;105339;1259;60452;-63
2023/08/02 11:24:51;;;;;;;7.90;4.50;;;;;;;31.01;42.71;99458.34;105170;1254;63626;-63
2023/08/02 11:27:20;;;;;;;7.00;4.60;;;;;;;31.07;42.87;99453.30;109172;1254;61327;-62
2023/08/02 11:30:07;;;;;;;7.90;4.60;;;;;;;31.13;42.92;99452.52;108168;1254;63700;-61
2023/08/02 11:32:44;;;;;;;7.40;4.30;;;;;;;31.21;41.96;99453.97;105390;1253;60499;-62